Terminal Aerodrome Forecast
Issued by NWS

Home | Current Version | Previous Version | Text Only | Print | Product List | Glossary On
Versions: 1 2 3 4 5 6 7 8 9 10 11 12 13 14
000
FTUS42 TJSJ 200500
TAFJBQ
TAF
TJBQ 200536Z 2006/2106 11006KT P6SM FEW030
     FM201430 06014KT P6SM FEW030
     FM202300 10006KT P6SM FEW025
      AMD NOT SKED TIL 201100=

USA.gov is the U.S. government's official web portal to all federal, state and local government web resources and services.